createdAt,value
2022-09-30T00:00:07.100Z,15.48
2022-09-30T00:01:10.302Z,15.49
2022-09-30T00:02:12.482Z,15.50
2022-09-30T00:03:14.386Z,15.50
2022-09-30T00:04:20.954Z,15.51
2022-09-30T00:05:22.668Z,15.51
2022-09-30T00:06:27.437Z,15.51
2022-09-30T00:07:29.220Z,15.51
2022-09-30T00:08:31.732Z,15.50
2022-09-30T00:09:33.568Z,15.50
2022-09-30T00:10:35.304Z,15.49
2022-09-30T00:11:39.221Z,15.48
2022-09-30T00:12:41.611Z,15.48
2022-09-30T00:13:46.156Z,15.47
2022-09-30T00:14:47.843Z,15.46
2022-09-30T00:15:49.601Z,15.47
2022-09-30T00:16:51.375Z,15.45
2022-09-30T00:17:53.084Z,15.45
2022-09-30T00:18:57.281Z,15.47
2022-09-30T00:19:59.012Z,15.44
2022-09-30T00:21:01.933Z,15.42
2022-09-30T00:22:03.705Z,15.43
2022-09-30T00:23:05.414Z,15.42
2022-09-30T00:24:07.902Z,15.41
2022-09-30T00:25:09.822Z,15.41
2022-09-30T00:26:16.005Z,15.42
2022-09-30T00:27:18.254Z,15.40
2022-09-30T00:28:19.947Z,15.37
2022-09-30T00:29:21.705Z,15.37
2022-09-30T00:30:23.428Z,15.36
2022-09-30T00:31:29.847Z,15.37
2022-09-30T00:32:31.677Z,15.35
2022-09-30T00:33:34.901Z,15.33
2022-09-30T00:34:36.827Z,15.31
2022-09-30T00:35:38.553Z,15.31
2022-09-30T00:36:46.933Z,15.30
2022-09-30T00:37:48.640Z,15.28
2022-09-30T00:38:50.361Z,15.28
2022-09-30T00:39:52.125Z,15.27
2022-09-30T00:40:55.702Z,15.24
2022-09-30T00:42:01.431Z,15.25
2022-09-30T00:43:03.151Z,15.25
2022-09-30T00:44:45.852Z,15.26
2022-09-30T00:45:59.655Z,15.24
2022-09-30T00:47:01.537Z,15.21
2022-09-30T00:48:16.841Z,15.21
2022-09-30T00:49:25.255Z,15.20
2022-09-30T00:50:49.620Z,15.22
2022-09-30T00:51:57.653Z,15.18
2022-09-30T00:53:34.378Z,15.19
2022-09-30T00:54:36.090Z,15.14
2022-09-30T00:56:01.721Z,15.15
2022-09-30T00:57:08.013Z,15.12
2022-09-30T00:58:17.997Z,15.12
2022-09-30T00:59:27.098Z,15.10
2022-09-30T01:00:28.870Z,15.06
2022-09-30T01:01:32.181Z,15.07
2022-09-30T01:02:34.018Z,15.05
2022-09-30T01:03:45.204Z,15.07
2022-09-30T01:04:47.184Z,15.05
2022-09-30T01:05:51.599Z,15.07
2022-09-30T01:06:53.947Z,15.06
2022-09-30T01:08:00.889Z,15.04
2022-09-30T01:09:03.673Z,15.03
2022-09-30T01:10:05.896Z,15.04
2022-09-30T01:11:08.462Z,15.02
2022-09-30T01:12:16.613Z,15.03
2022-09-30T01:13:22.327Z,15.02
2022-09-30T01:14:27.898Z,14.98
2022-09-30T01:16:06.921Z,15.02
2022-09-30T01:17:44.909Z,15.01
2022-09-30T01:19:30.884Z,15.00
2022-09-30T01:21:37.349Z,14.97
2022-09-30T01:23:13.021Z,14.93
2022-09-30T01:24:23.595Z,14.88
2022-09-30T01:26:01.695Z,14.88
2022-09-30T01:27:30.570Z,14.88
2022-09-30T01:29:16.202Z,14.84
2022-09-30T01:30:22.529Z,14.83
2022-09-30T01:31:32.417Z,14.85
2022-09-30T01:32:53.209Z,14.83
2022-09-30T01:34:18.773Z,14.83
2022-09-30T01:36:16.590Z,14.83
2022-09-30T01:37:39.176Z,14.82
2022-09-30T01:39:21.111Z,14.80
2022-09-30T01:40:32.839Z,14.78
2022-09-30T01:42:07.450Z,14.79
2022-09-30T01:43:15.316Z,14.76
2022-09-30T01:44:39.391Z,14.75
2022-09-30T01:45:55.475Z,14.75
2022-09-30T01:47:27.030Z,14.73
2022-09-30T01:49:03.908Z,14.69
2022-09-30T01:50:24.993Z,14.65
2022-09-30T01:51:54.241Z,14.62
2022-09-30T01:53:15.188Z,14.59
2022-09-30T01:54:28.363Z,14.58
2022-09-30T01:55:46.050Z,14.60
2022-09-30T01:57:03.167Z,14.61
2022-09-30T01:58:30.125Z,14.62
2022-09-30T01:59:46.228Z,14.63
2022-09-30T02:00:55.899Z,14.62
2022-09-30T02:02:15.197Z,14.64
2022-09-30T02:03:27.568Z,14.65
2022-09-30T02:04:44.960Z,14.65
2022-09-30T02:06:05.814Z,14.65
2022-09-30T02:07:20.796Z,14.66
2022-09-30T02:08:41.463Z,14.65
2022-09-30T02:10:01.563Z,14.65
2022-09-30T02:11:14.315Z,14.63
2022-09-30T02:12:23.773Z,14.60
2022-09-30T02:13:40.425Z,14.64
2022-09-30T02:15:23.070Z,14.66
2022-09-30T02:17:07.737Z,14.65
2022-09-30T02:18:39.155Z,14.64
2022-09-30T02:19:58.927Z,14.61
2022-09-30T02:21:04.648Z,14.59
2022-09-30T02:22:26.268Z,14.60
2022-09-30T02:23:42.474Z,14.60
2022-09-30T02:24:48.984Z,14.57
2022-09-30T02:26:10.203Z,14.59
2022-09-30T02:27:45.397Z,14.59
2022-09-30T02:28:58.032Z,14.56
2022-09-30T02:30:04.211Z,14.56
2022-09-30T02:31:11.037Z,14.55
2022-09-30T02:32:23.368Z,14.54
2022-09-30T02:33:59.613Z,14.55
2022-09-30T02:35:10.416Z,14.54
2022-09-30T02:36:47.000Z,14.54
2022-09-30T02:37:57.614Z,14.53
2022-09-30T02:39:19.260Z,14.52
2022-09-30T02:40:48.104Z,14.53
2022-09-30T02:42:00.319Z,14.49
2022-09-30T02:43:04.627Z,14.47
2022-09-30T02:44:06.922Z,14.46
2022-09-30T02:45:16.298Z,14.46
2022-09-30T02:46:41.102Z,14.48
2022-09-30T02:48:03.992Z,14.46
2022-09-30T02:49:24.722Z,14.46
2022-09-30T02:50:48.908Z,14.45
2022-09-30T02:52:12.459Z,14.44
2022-09-30T02:53:23.625Z,14.42
2022-09-30T02:54:57.823Z,14.42
2022-09-30T02:56:45.918Z,14.45
2022-09-30T02:58:11.261Z,14.42
2022-09-30T02:59:14.659Z,14.36
2022-09-30T03:00:16.678Z,14.37
2022-09-30T03:01:18.589Z,14.36
2022-09-30T03:02:21.686Z,14.36
2022-09-30T03:03:37.818Z,14.37
2022-09-30T03:04:41.853Z,14.36
2022-09-30T03:05:44.684Z,14.36
2022-09-30T03:06:46.663Z,14.35
2022-09-30T03:07:48.483Z,14.35
2022-09-30T03:08:53.014Z,14.36
2022-09-30T03:10:01.171Z,14.35
2022-09-30T03:11:04.296Z,14.34
2022-09-30T03:12:51.340Z,14.39
2022-09-30T03:13:56.013Z,14.35
2022-09-30T03:15:03.453Z,14.33
2022-09-30T03:16:34.386Z,14.35
2022-09-30T03:17:47.343Z,14.31
2022-09-30T03:19:09.979Z,14.34
2022-09-30T03:20:27.191Z,14.32
2022-09-30T03:21:55.566Z,14.32
2022-09-30T03:23:36.099Z,14.32
2022-09-30T03:25:09.630Z,14.31
2022-09-30T03:26:53.055Z,14.28
2022-09-30T03:28:19.325Z,14.26
2022-09-30T03:29:35.088Z,14.26
2022-09-30T03:30:59.250Z,14.26
2022-09-30T03:32:11.053Z,14.25
2022-09-30T03:33:22.275Z,14.23
2022-09-30T03:35:01.488Z,14.26
2022-09-30T03:36:24.935Z,14.25
2022-09-30T03:37:34.105Z,14.20
2022-09-30T03:38:58.180Z,14.23
2022-09-30T03:40:18.565Z,14.23
2022-09-30T03:41:33.908Z,14.21
2022-09-30T03:42:48.214Z,14.20
2022-09-30T03:44:37.202Z,14.21
2022-09-30T03:46:01.078Z,14.19
2022-09-30T03:47:11.084Z,14.17
2022-09-30T03:48:15.061Z,14.12
2022-09-30T03:49:25.404Z,14.14
2022-09-30T03:50:29.385Z,14.12
2022-09-30T03:51:35.497Z,14.12
2022-09-30T03:52:38.373Z,14.10
2022-09-30T03:53:46.552Z,14.10
2022-09-30T03:54:54.042Z,14.09
2022-09-30T03:55:55.916Z,14.04
2022-09-30T03:56:58.518Z,14.01
2022-09-30T03:58:00.443Z,14.01
2022-09-30T03:59:02.253Z,14.00
2022-09-30T04:00:06.971Z,14.00
2022-09-30T04:01:21.401Z,14.00
2022-09-30T04:02:24.662Z,14.01
2022-09-30T04:03:27.772Z,13.97
2022-09-30T04:04:29.501Z,14.01
2022-09-30T04:05:31.234Z,14.01
2022-09-30T04:06:33.015Z,13.98
2022-09-30T04:07:35.925Z,13.99
2022-09-30T04:08:37.637Z,14.00
2022-09-30T04:09:39.955Z,13.98
2022-09-30T04:10:46.170Z,14.00
2022-09-30T04:11:47.894Z,14.00
2022-09-30T04:12:53.949Z,13.97
2022-09-30T04:13:55.805Z,13.98
2022-09-30T04:14:57.579Z,13.97
2022-09-30T04:15:59.302Z,13.98
2022-09-30T04:17:02.966Z,13.98
2022-09-30T04:18:05.553Z,13.99
2022-09-30T04:19:07.325Z,13.99
2022-09-30T04:20:09.202Z,14.01
2022-09-30T04:21:14.452Z,14.01
2022-09-30T04:22:16.485Z,14.01
2022-09-30T04:23:18.221Z,14.01
2022-09-30T04:24:24.687Z,14.04
2022-09-30T04:25:27.954Z,14.01
2022-09-30T04:26:29.749Z,14.02
2022-09-30T04:27:31.554Z,14.02
2022-09-30T04:28:34.507Z,14.01
2022-09-30T04:29:36.229Z,14.01
2022-09-30T04:30:38.738Z,14.00
2022-09-30T04:31:40.518Z,14.01
2022-09-30T04:32:45.365Z,14.03
2022-09-30T04:33:47.254Z,14.04
2022-09-30T04:34:49.007Z,14.02
2022-09-30T04:35:57.701Z,14.04
2022-09-30T04:36:59.427Z,14.03
2022-09-30T04:38:01.924Z,14.01
2022-09-30T04:39:04.869Z,14.02
2022-09-30T04:40:07.288Z,14.01
2022-09-30T04:41:16.236Z,14.01
2022-09-30T04:42:18.304Z,14.00
2022-09-30T04:43:23.204Z,13.99
2022-09-30T04:44:24.936Z,13.98
2022-09-30T04:45:27.010Z,13.96
2022-09-30T04:46:28.815Z,13.96
2022-09-30T04:47:31.250Z,13.93
2022-09-30T04:48:33.011Z,13.93
2022-09-30T04:49:34.743Z,13.93
2022-09-30T04:50:36.703Z,13.93
2022-09-30T04:51:38.525Z,13.94
2022-09-30T04:52:43.843Z,13.95
2022-09-30T04:53:46.729Z,13.93
2022-09-30T04:54:48.483Z,13.93
2022-09-30T04:55:50.828Z,13.92
2022-09-30T04:56:52.639Z,13.93
2022-09-30T04:57:54.386Z,13.90
2022-09-30T04:58:56.094Z,13.92
2022-09-30T04:59:57.812Z,13.92
2022-09-30T05:01:08.948Z,13.92
2022-09-30T05:02:12.733Z,13.90
2022-09-30T05:03:14.970Z,13.88
2022-09-30T05:04:16.781Z,13.86
2022-09-30T05:05:19.170Z,13.88
2022-09-30T05:06:20.913Z,13.87
2022-09-30T05:07:22.771Z,13.89
2022-09-30T05:08:24.682Z,13.87
2022-09-30T05:09:26.427Z,13.86
2022-09-30T05:10:28.529Z,13.84
2022-09-30T05:11:30.250Z,13.86
2022-09-30T05:12:32.104Z,13.86
2022-09-30T05:13:38.117Z,13.88
2022-09-30T05:14:39.842Z,13.87
2022-09-30T05:15:41.578Z,13.87
2022-09-30T05:16:43.309Z,13.86
2022-09-30T05:17:45.064Z,13.87
2022-09-30T05:18:47.217Z,13.85
2022-09-30T05:19:49.010Z,13.86
2022-09-30T05:20:51.991Z,13.87
2022-09-30T05:21:53.721Z,13.86
2022-09-30T05:22:56.644Z,13.86
2022-09-30T05:23:58.439Z,13.86
2022-09-30T05:25:00.166Z,13.86
2022-09-30T05:26:03.368Z,13.83
2022-09-30T05:27:05.084Z,13.87
2022-09-30T05:28:07.823Z,13.87
2022-09-30T05:29:10.680Z,13.87
2022-09-30T05:30:12.430Z,13.86
2022-09-30T05:31:14.241Z,13.86
2022-09-30T05:32:16.529Z,13.85
2022-09-30T05:33:18.261Z,13.86
2022-09-30T05:34:21.261Z,13.86
2022-09-30T05:35:23.090Z,13.83
2022-09-30T05:36:25.065Z,13.84
2022-09-30T05:37:26.787Z,13.83
2022-09-30T05:38:28.861Z,13.78
2022-09-30T05:39:30.680Z,13.74
2022-09-30T05:40:32.511Z,13.73
2022-09-30T05:41:34.244Z,13.70
2022-09-30T05:42:36.888Z,13.69
2022-09-30T05:43:40.955Z,13.69
2022-09-30T05:44:42.739Z,13.65
2022-09-30T05:45:53.587Z,13.64
2022-09-30T05:46:55.582Z,13.65
2022-09-30T05:47:57.558Z,13.64
2022-09-30T05:48:59.302Z,13.63
2022-09-30T05:50:01.063Z,13.61
2022-09-30T05:51:03.239Z,13.60
2022-09-30T05:52:05.190Z,13.59
2022-09-30T05:53:06.889Z,13.56
2022-09-30T05:54:11.273Z,13.52
2022-09-30T05:55:13.862Z,13.46
2022-09-30T05:56:15.612Z,13.46
2022-09-30T05:57:17.480Z,13.41
2022-09-30T05:58:20.313Z,13.38
2022-09-30T05:59:22.056Z,13.38
2022-09-30T06:00:23.876Z,13.33
2022-09-30T06:01:25.646Z,13.30
2022-09-30T06:02:27.498Z,13.27
2022-09-30T06:03:29.272Z,13.27
2022-09-30T06:04:31.170Z,13.26
2022-09-30T06:05:32.887Z,13.27
2022-09-30T06:06:34.642Z,13.30
2022-09-30T06:07:38.581Z,13.29
2022-09-30T06:08:41.381Z,13.29
2022-09-30T06:09:43.445Z,13.26
2022-09-30T06:10:45.560Z,13.25
2022-09-30T06:11:47.922Z,13.23
2022-09-30T06:12:49.817Z,13.22
2022-09-30T06:13:52.312Z,13.22
2022-09-30T06:14:55.203Z,13.24
2022-09-30T06:16:02.221Z,13.26
2022-09-30T06:17:06.381Z,13.25
2022-09-30T06:18:09.827Z,13.26
2022-09-30T06:19:11.656Z,13.28
2022-09-30T06:20:13.433Z,13.30
2022-09-30T06:21:17.970Z,13.31
2022-09-30T06:22:19.685Z,13.34
2022-09-30T06:23:21.485Z,13.34
2022-09-30T06:24:23.545Z,13.38
2022-09-30T06:25:25.249Z,13.39
2022-09-30T06:26:27.747Z,13.39
2022-09-30T06:27:29.477Z,13.40
2022-09-30T06:28:34.947Z,13.41
2022-09-30T06:29:36.931Z,13.44
2022-09-30T06:30:38.666Z,13.43
2022-09-30T06:31:40.702Z,13.44
2022-09-30T06:32:42.568Z,13.45
2022-09-30T06:33:44.368Z,13.46
2022-09-30T06:34:46.439Z,13.50
2022-09-30T06:35:48.345Z,13.51
2022-09-30T06:36:50.150Z,13.53
2022-09-30T06:37:52.458Z,13.56
2022-09-30T06:38:54.234Z,13.57
2022-09-30T06:39:56.018Z,13.58
2022-09-30T06:41:00.798Z,13.61
2022-09-30T06:42:02.528Z,13.62
2022-09-30T06:43:05.124Z,13.66
2022-09-30T06:44:06.865Z,13.64
2022-09-30T06:45:11.766Z,13.67
2022-09-30T06:46:22.001Z,13.70
2022-09-30T06:47:26.267Z,13.74
2022-09-30T06:48:37.540Z,13.76
2022-09-30T06:49:49.287Z,13.79
2022-09-30T06:51:01.575Z,13.82
2022-09-30T06:52:04.194Z,13.85
2022-09-30T06:53:08.853Z,13.89
2022-09-30T06:54:11.296Z,13.90
2022-09-30T06:55:13.050Z,13.91
2022-09-30T06:56:18.200Z,13.93
2022-09-30T06:57:22.534Z,13.97
2022-09-30T06:58:25.011Z,13.97
2022-09-30T06:59:27.100Z,13.96
2022-09-30T07:00:28.977Z,13.98
2022-09-30T07:01:30.725Z,14.02
2022-09-30T07:02:34.371Z,14.01
2022-09-30T07:03:36.539Z,14.02
2022-09-30T07:04:38.240Z,14.05
2022-09-30T07:05:39.955Z,14.06
2022-09-30T07:06:42.218Z,14.09
2022-09-30T07:07:44.120Z,14.10
2022-09-30T07:08:45.861Z,14.10
2022-09-30T07:09:48.045Z,14.11
2022-09-30T07:10:49.854Z,14.15
2022-09-30T07:11:51.600Z,14.15
2022-09-30T07:12:54.133Z,14.18
2022-09-30T07:13:55.863Z,14.20
2022-09-30T07:14:59.026Z,14.22
2022-09-30T07:16:01.018Z,14.24
2022-09-30T07:17:04.511Z,14.24
2022-09-30T07:18:06.658Z,14.28
2022-09-30T07:19:10.052Z,14.30
2022-09-30T07:20:11.852Z,14.30
2022-09-30T07:21:16.146Z,14.32
2022-09-30T07:22:29.797Z,14.32
2022-09-30T07:23:32.120Z,14.32
2022-09-30T07:24:34.851Z,14.33
2022-09-30T07:25:36.558Z,14.33
2022-09-30T07:26:39.497Z,14.34
2022-09-30T07:27:41.695Z,14.37
2022-09-30T07:28:43.801Z,14.38
2022-09-30T07:30:07.557Z,14.40
2022-09-30T07:31:34.319Z,14.42
2022-09-30T07:32:37.186Z,14.43
2022-09-30T07:33:40.000Z,14.45
2022-09-30T07:34:44.114Z,14.45
2022-09-30T07:35:53.980Z,14.50
2022-09-30T07:36:55.691Z,14.47
2022-09-30T07:37:58.456Z,14.49
2022-09-30T07:39:05.685Z,14.49
2022-09-30T07:40:09.479Z,14.53
2022-09-30T07:41:24.373Z,14.56
2022-09-30T07:42:26.687Z,14.57
2022-09-30T07:43:37.793Z,14.59
2022-09-30T07:44:41.766Z,14.61
2022-09-30T07:45:43.549Z,14.65
2022-09-30T07:46:46.031Z,14.65
2022-09-30T07:47:53.281Z,14.68
2022-09-30T07:49:01.354Z,14.70
2022-09-30T07:50:03.993Z,14.72
2022-09-30T07:51:05.910Z,14.74
2022-09-30T07:52:08.696Z,14.77
2022-09-30T07:53:10.422Z,14.79
2022-09-30T07:54:18.422Z,14.83
2022-09-30T07:55:20.138Z,14.84
2022-09-30T07:56:24.748Z,14.88
2022-09-30T07:57:26.466Z,14.90
2022-09-30T07:58:28.162Z,14.92
2022-09-30T07:59:34.058Z,14.95
2022-09-30T08:00:42.558Z,14.97
2022-09-30T08:01:45.694Z,15.01
2022-09-30T08:02:47.462Z,15.03
2022-09-30T08:03:55.694Z,15.08
2022-09-30T08:04:57.423Z,15.10
2022-09-30T08:06:08.770Z,15.15
2022-09-30T08:07:12.022Z,15.18
2022-09-30T08:08:15.587Z,15.18
2022-09-30T08:09:21.134Z,15.21
2022-09-30T08:10:23.112Z,15.23
2022-09-30T08:11:26.881Z,15.28
2022-09-30T08:12:28.586Z,15.31
2022-09-30T08:13:30.314Z,15.33
2022-09-30T08:14:32.156Z,15.37
2022-09-30T08:15:34.565Z,15.40
2022-09-30T08:16:36.336Z,15.44
2022-09-30T08:17:38.091Z,15.46
2022-09-30T08:18:39.800Z,15.50
2022-09-30T08:19:44.505Z,15.52
2022-09-30T08:20:46.260Z,15.56
2022-09-30T08:21:49.121Z,15.58
2022-09-30T08:22:55.362Z,15.61
2022-09-30T08:23:58.229Z,15.65
2022-09-30T08:24:59.940Z,15.66
2022-09-30T08:26:11.492Z,15.72
2022-09-30T08:27:13.227Z,15.72
2022-09-30T08:28:15.343Z,15.76
2022-09-30T08:29:20.692Z,15.77
2022-09-30T08:30:26.982Z,15.79
2022-09-30T08:31:29.722Z,15.82
2022-09-30T08:32:32.307Z,15.84
2022-09-30T08:33:34.514Z,15.87
2022-09-30T08:34:36.260Z,15.89
2022-09-30T08:35:37.976Z,15.92
2022-09-30T08:36:39.881Z,15.93
2022-09-30T08:37:41.790Z,15.96
2022-09-30T08:38:44.232Z,15.97
2022-09-30T08:39:48.211Z,16.00
2022-09-30T08:41:07.985Z,16.09
2022-09-30T08:43:17.504Z,16.13
2022-09-30T08:44:40.307Z,16.17
2022-09-30T08:45:47.701Z,16.13
2022-09-30T08:47:33.071Z,16.20
2022-09-30T08:48:44.906Z,16.19
2022-09-30T08:50:30.928Z,16.27
2022-09-30T08:51:49.512Z,16.28
2022-09-30T08:52:58.194Z,16.30
2022-09-30T08:54:05.662Z,16.32
2022-09-30T08:55:18.265Z,16.33
2022-09-30T08:56:28.085Z,16.38
2022-09-30T08:57:43.852Z,16.40
2022-09-30T08:58:54.295Z,16.44
2022-09-30T09:00:06.519Z,16.44
2022-09-30T09:01:33.186Z,16.52
2022-09-30T09:02:57.345Z,16.56
2022-09-30T09:04:02.459Z,16.56
2022-09-30T09:05:07.532Z,16.59
2022-09-30T09:06:52.651Z,16.69
2022-09-30T09:08:00.403Z,16.70
2022-09-30T09:09:20.915Z,16.69
2022-09-30T09:10:40.485Z,16.77
2022-09-30T09:12:13.665Z,16.83
2022-09-30T09:13:42.077Z,16.85
2022-09-30T09:15:15.050Z,16.90
2022-09-30T09:16:47.900Z,16.94
2022-09-30T09:18:23.763Z,17.00
2022-09-30T09:19:38.391Z,17.02
2022-09-30T09:20:53.518Z,17.05
2022-09-30T09:22:01.733Z,17.07
2022-09-30T09:23:08.994Z,17.08
2022-09-30T09:24:25.911Z,17.15
2022-09-30T09:25:28.581Z,17.14
2022-09-30T09:26:36.747Z,17.17
2022-09-30T09:27:52.724Z,17.21
2022-09-30T09:29:08.324Z,17.24
2022-09-30T09:30:15.605Z,17.27
2022-09-30T09:31:20.443Z,17.30
2022-09-30T09:32:22.307Z,17.32
2022-09-30T09:33:30.577Z,17.36
2022-09-30T09:34:33.942Z,17.36
2022-09-30T09:35:51.508Z,17.43
2022-09-30T09:37:19.940Z,17.52
2022-09-30T09:38:51.181Z,17.59
2022-09-30T09:40:32.443Z,17.71
2022-09-30T09:42:21.400Z,17.84
2022-09-30T09:44:01.151Z,18.08
2022-09-30T09:45:40.067Z,18.40
2022-09-30T09:46:50.851Z,18.63
2022-09-30T09:47:53.661Z,18.82
2022-09-30T09:49:29.447Z,19.28
2022-09-30T09:50:39.869Z,19.51
2022-09-30T09:51:51.077Z,19.83
2022-09-30T09:53:20.336Z,20.30
2022-09-30T09:54:25.477Z,20.45
2022-09-30T09:55:27.243Z,20.67
2022-09-30T09:56:33.507Z,20.99
2022-09-30T09:57:35.231Z,21.27
2022-09-30T09:58:37.285Z,21.53
2022-09-30T09:59:58.429Z,21.98
2022-09-30T10:01:32.610Z,22.25
2022-09-30T10:02:34.540Z,22.56
2022-09-30T10:03:37.419Z,22.76
2022-09-30T10:04:50.956Z,23.10
2022-09-30T10:06:05.277Z,23.43
2022-09-30T10:07:15.092Z,23.75
2022-09-30T10:08:23.786Z,24.07
2022-09-30T10:09:30.226Z,24.33
2022-09-30T10:10:56.103Z,24.91
2022-09-30T10:12:06.744Z,25.28
2022-09-30T10:13:24.761Z,25.66
2022-09-30T10:14:26.671Z,25.82
2022-09-30T10:15:28.547Z,26.04
2022-09-30T10:16:36.569Z,26.26
2022-09-30T10:17:39.492Z,26.45
2022-09-30T10:18:41.872Z,26.65
2022-09-30T10:20:22.942Z,27.00
2022-09-30T10:21:28.202Z,27.15
2022-09-30T10:22:32.790Z,27.29
2022-09-30T10:23:39.974Z,27.52
2022-09-30T10:24:41.748Z,27.66
2022-09-30T10:26:15.569Z,28.01
2022-09-30T10:27:34.799Z,28.22
2022-09-30T10:28:54.250Z,28.41
2022-09-30T10:29:56.371Z,28.54
2022-09-30T10:31:24.142Z,28.80
2022-09-30T10:32:28.126Z,28.90
2022-09-30T10:33:46.884Z,29.03
2022-09-30T10:35:01.797Z,29.12
2022-09-30T10:36:08.826Z,29.23
2022-09-30T10:37:16.958Z,29.33
2022-09-30T10:38:19.041Z,29.43
2022-09-30T10:39:33.796Z,29.43
2022-09-30T10:40:35.796Z,29.44
2022-09-30T10:41:39.028Z,29.37
2022-09-30T10:42:46.144Z,29.36
2022-09-30T10:43:53.150Z,29.36
2022-09-30T10:45:37.052Z,29.43
2022-09-30T10:46:41.935Z,29.33
2022-09-30T10:47:48.960Z,29.24
2022-09-30T10:48:54.716Z,29.24
2022-09-30T10:50:17.099Z,29.24
2022-09-30T10:51:27.860Z,29.20
2022-09-30T10:52:36.323Z,29.11
2022-09-30T10:53:43.903Z,29.05
2022-09-30T10:54:54.701Z,28.99
2022-09-30T10:55:57.742Z,28.97
2022-09-30T10:57:03.900Z,28.93
2022-09-30T10:58:51.505Z,28.89
2022-09-30T11:00:21.755Z,28.74
2022-09-30T11:01:35.275Z,28.63
2022-09-30T11:02:58.694Z,28.53
2022-09-30T11:04:38.950Z,28.45
2022-09-30T11:05:43.695Z,28.28
2022-09-30T11:06:51.636Z,28.15
2022-09-30T11:08:23.806Z,28.02
2022-09-30T11:09:47.818Z,27.87
2022-09-30T11:11:17.350Z,27.74
2022-09-30T11:13:10.701Z,27.57
2022-09-30T11:14:27.500Z,27.39
2022-09-30T11:16:00.586Z,27.28
2022-09-30T11:17:23.680Z,27.07
2022-09-30T11:18:50.160Z,26.92
2022-09-30T11:20:29.804Z,26.75
2022-09-30T11:21:46.582Z,26.58
2022-09-30T11:23:36.396Z,26.48
2022-09-30T11:24:45.420Z,26.34
2022-09-30T11:26:16.967Z,26.22
2022-09-30T11:27:42.972Z,26.08
2022-09-30T11:29:24.347Z,25.96
2022-09-30T11:31:04.891Z,25.85
2022-09-30T11:32:30.198Z,25.71
2022-09-30T11:33:59.084Z,25.61
2022-09-30T11:35:42.816Z,25.47
2022-09-30T11:37:05.177Z,25.35
2022-09-30T11:38:38.677Z,25.27
2022-09-30T11:40:32.773Z,25.19
2022-09-30T11:41:51.957Z,25.07
2022-09-30T11:43:44.753Z,24.97
2022-09-30T11:44:49.078Z,24.92
2022-09-30T11:46:37.682Z,24.86
2022-09-30T11:48:16.019Z,24.82
2022-09-30T11:49:46.326Z,24.74
2022-09-30T11:51:24.827Z,24.69
2022-09-30T11:52:47.429Z,24.61
2022-09-30T11:54:07.116Z,24.56
2022-09-30T11:55:48.341Z,24.48
2022-09-30T11:56:55.845Z,24.41
2022-09-30T11:58:36.185Z,24.34
2022-09-30T11:59:43.614Z,24.28
2022-09-30T12:00:54.886Z,24.24
2022-09-30T12:02:02.873Z,24.18
2022-09-30T12:03:17.289Z,24.16
2022-09-30T12:04:41.240Z,24.16
2022-09-30T12:05:51.998Z,24.13
2022-09-30T12:07:17.484Z,24.14
2022-09-30T12:08:59.820Z,24.07
2022-09-30T12:10:16.068Z,23.98
2022-09-30T12:11:49.666Z,23.92
2022-09-30T12:13:02.775Z,23.82
2022-09-30T12:14:20.859Z,23.74
2022-09-30T12:15:26.217Z,23.68
2022-09-30T12:16:33.948Z,23.62
2022-09-30T12:18:10.367Z,23.59
2022-09-30T12:19:25.225Z,23.51
2022-09-30T12:20:44.195Z,23.46
2022-09-30T12:22:03.836Z,23.39
2022-09-30T12:23:20.985Z,23.33
2022-09-30T12:24:36.763Z,23.25
2022-09-30T12:25:53.119Z,23.21
2022-09-30T12:26:55.216Z,23.11
2022-09-30T12:28:42.833Z,23.07
2022-09-30T12:30:19.133Z,22.99
2022-09-30T12:31:44.459Z,22.92
2022-09-30T12:33:19.694Z,22.84
2022-09-30T12:34:42.976Z,22.74
2022-09-30T12:36:24.477Z,22.67
2022-09-30T12:37:50.695Z,22.58
2022-09-30T12:39:44.534Z,22.52
2022-09-30T12:41:25.067Z,22.43
2022-09-30T12:42:52.819Z,22.37
2022-09-30T12:44:45.386Z,22.28
2022-09-30T12:46:15.059Z,22.20
2022-09-30T12:47:45.878Z,22.13
2022-09-30T12:48:58.602Z,22.07
2022-09-30T12:50:06.930Z,22.03
2022-09-30T12:51:10.645Z,21.98
2022-09-30T12:52:21.403Z,21.94
2022-09-30T12:53:32.909Z,21.91
2022-09-30T12:54:52.128Z,21.88
2022-09-30T12:55:55.154Z,21.84
2022-09-30T12:57:03.752Z,21.81
2022-09-30T12:58:20.317Z,21.76
2022-09-30T12:59:31.317Z,21.74
2022-09-30T13:00:37.592Z,21.70
2022-09-30T13:01:42.373Z,21.69
2022-09-30T13:03:08.920Z,21.67
2022-09-30T13:04:30.613Z,21.66
2022-09-30T13:05:32.386Z,21.62
2022-09-30T13:06:46.338Z,21.60
2022-09-30T13:08:06.496Z,21.60
2022-09-30T13:09:17.001Z,21.59
2022-09-30T13:10:31.782Z,21.58
2022-09-30T13:11:42.748Z,21.56
2022-09-30T13:12:47.584Z,21.55
2022-09-30T13:14:12.446Z,21.57
2022-09-30T13:15:29.440Z,21.56
2022-09-30T13:17:03.343Z,21.58
2022-09-30T13:18:20.319Z,21.57
2022-09-30T13:19:34.702Z,21.57
2022-09-30T13:21:08.436Z,21.58
2022-09-30T13:22:23.993Z,21.58
2022-09-30T13:23:51.586Z,21.65
2022-09-30T13:25:05.264Z,21.65
2022-09-30T13:26:28.975Z,21.69
2022-09-30T13:28:27.241Z,21.69
2022-09-30T13:29:35.213Z,21.68
2022-09-30T13:30:39.943Z,21.65
2022-09-30T13:31:50.933Z,21.67
2022-09-30T13:32:57.390Z,21.63
2022-09-30T13:34:01.817Z,21.65
2022-09-30T13:35:33.545Z,21.71
2022-09-30T13:36:43.740Z,21.69
2022-09-30T13:37:45.453Z,21.66
2022-09-30T13:39:25.834Z,21.69
2022-09-30T13:40:49.738Z,21.66
2022-09-30T13:42:00.863Z,21.64
2022-09-30T13:43:04.517Z,21.59
2022-09-30T13:44:12.351Z,21.59
2022-09-30T13:45:31.245Z,21.60
2022-09-30T13:46:46.969Z,21.58
2022-09-30T13:48:10.752Z,21.58
2022-09-30T13:49:29.368Z,21.56
2022-09-30T13:50:40.151Z,21.55
2022-09-30T13:51:42.484Z,21.55
2022-09-30T13:52:53.643Z,21.54
2022-09-30T13:54:06.444Z,21.54
2022-09-30T13:55:33.412Z,21.57
2022-09-30T13:56:40.513Z,21.53
2022-09-30T13:58:24.861Z,21.53
2022-09-30T13:59:53.298Z,21.52
2022-09-30T14:01:22.286Z,21.52
2022-09-30T14:03:05.318Z,21.51
2022-09-30T14:04:24.886Z,21.49
2022-09-30T14:05:51.365Z,21.50
2022-09-30T14:07:37.632Z,21.48
2022-09-30T14:09:15.832Z,21.50
2022-09-30T14:10:34.798Z,21.44
2022-09-30T14:11:59.263Z,21.46
2022-09-30T14:13:48.697Z,21.47
2022-09-30T14:15:23.599Z,21.46
2022-09-30T14:17:22.624Z,21.46
2022-09-30T14:18:58.265Z,21.44
2022-09-30T14:20:38.237Z,21.46
2022-09-30T14:21:50.001Z,21.42
2022-09-30T14:22:52.097Z,21.39
2022-09-30T14:24:17.543Z,21.45
2022-09-30T14:25:21.509Z,21.43
2022-09-30T14:26:53.778Z,21.49
2022-09-30T14:28:11.794Z,21.51
2022-09-30T14:29:50.180Z,21.58
2022-09-30T14:31:08.078Z,21.59
2022-09-30T14:32:53.374Z,21.66
2022-09-30T14:33:56.499Z,21.63
2022-09-30T14:35:04.556Z,21.64
2022-09-30T14:36:19.265Z,21.67
2022-09-30T14:37:33.200Z,21.67
2022-09-30T14:38:37.193Z,21.67
2022-09-30T14:39:39.344Z,21.68
2022-09-30T14:40:50.738Z,21.69
2022-09-30T14:42:01.211Z,21.72
2022-09-30T14:43:07.933Z,21.72
2022-09-30T14:44:17.840Z,21.74
2022-09-30T14:45:28.840Z,21.75
2022-09-30T14:46:46.996Z,21.80
2022-09-30T14:47:52.493Z,21.81
2022-09-30T14:49:01.666Z,21.82
2022-09-30T14:50:10.725Z,21.85
2022-09-30T14:51:21.446Z,21.88
2022-09-30T14:52:45.105Z,21.91
2022-09-30T14:54:02.177Z,21.91
2022-09-30T14:55:05.158Z,21.87
2022-09-30T14:56:33.334Z,21.90
2022-09-30T14:57:35.551Z,21.85
2022-09-30T14:58:42.428Z,21.87
2022-09-30T14:59:44.275Z,21.85
2022-09-30T15:01:17.358Z,21.91
2022-09-30T15:02:20.510Z,21.87
2022-09-30T15:03:22.343Z,21.84
2022-09-30T15:04:39.497Z,21.86
2022-09-30T15:05:41.575Z,21.84
2022-09-30T15:06:49.206Z,21.81
2022-09-30T15:07:50.999Z,21.79
2022-09-30T15:09:05.907Z,21.81
2022-09-30T15:10:18.481Z,21.80
2022-09-30T15:11:26.048Z,21.77
2022-09-30T15:12:28.624Z,21.75
2022-09-30T15:13:31.880Z,21.73
2022-09-30T15:14:33.969Z,21.75
2022-09-30T15:15:37.849Z,21.74
2022-09-30T15:17:06.352Z,21.74
2022-09-30T15:18:36.292Z,21.75
2022-09-30T15:19:43.733Z,21.72
2022-09-30T15:20:45.594Z,21.70
2022-09-30T15:21:50.046Z,21.67
2022-09-30T15:22:53.707Z,21.66
2022-09-30T15:24:00.599Z,21.66
2022-09-30T15:25:02.938Z,21.64
2022-09-30T15:26:07.021Z,21.63
2022-09-30T15:27:21.297Z,21.65
2022-09-30T15:28:23.794Z,21.61
2022-09-30T15:29:25.783Z,21.61
2022-09-30T15:30:29.436Z,21.59